createdAt,value
2023-02-26T00:01:58.549Z,10.18
2023-02-26T00:04:27.986Z,12.40
2023-02-26T00:06:59.723Z,7.40
2023-02-26T00:09:28.783Z,8.00
2023-02-26T00:11:59.308Z,12.28
2023-02-26T00:14:29.179Z,11.45
2023-02-26T00:17:01.646Z,12.98
2023-02-26T00:19:31.443Z,16.90
2023-02-26T00:22:01.733Z,10.45
2023-02-26T00:24:31.366Z,10.72
2023-02-26T00:27:00.685Z,10.53
2023-02-26T00:29:30.933Z,8.70
2023-02-26T00:32:00.737Z,12.13
2023-02-26T00:34:30.463Z,11.70
2023-02-26T00:37:20.363Z,8.83
2023-02-26T00:39:58.873Z,7.25
2023-02-26T00:42:28.837Z,14.25
2023-02-26T00:44:58.694Z,11.43
2023-02-26T00:47:54.834Z,12.78
2023-02-26T00:50:25.946Z,13.48
2023-02-26T00:52:58.432Z,17.82
2023-02-26T00:55:29.439Z,7.97
2023-02-26T00:57:58.848Z,12.25
2023-02-26T01:00:28.571Z,13.08
2023-02-26T01:02:58.772Z,9.83
2023-02-26T01:05:28.344Z,11.60
2023-02-26T01:08:32.475Z,9.48
2023-02-26T01:11:02.202Z,8.70
2023-02-26T01:13:32.034Z,7.62
2023-02-26T01:16:04.914Z,11.73
2023-02-26T01:18:39.634Z,7.25
2023-02-26T01:21:11.728Z,10.88
2023-02-26T01:23:44.687Z,8.00
2023-02-26T01:26:20.711Z,11.00
2023-02-26T01:28:50.577Z,9.28
2023-02-26T01:31:46.122Z,13.60
2023-02-26T01:34:21.653Z,8.23
2023-02-26T01:36:57.444Z,10.28
2023-02-26T01:39:38.789Z,13.03
2023-02-26T01:42:14.185Z,8.05
2023-02-26T01:44:58.430Z,8.80
2023-02-26T01:47:36.339Z,9.05
2023-02-26T01:50:14.854Z,13.48
2023-02-26T01:52:53.548Z,8.18
2023-02-26T01:55:25.476Z,7.33
2023-02-26T01:57:57.062Z,6.10
2023-02-26T02:00:26.382Z,9.13
2023-02-26T02:02:55.798Z,9.50
2023-02-26T02:05:31.331Z,12.13
2023-02-26T02:08:01.612Z,6.40
2023-02-26T02:10:31.504Z,9.55
2023-02-26T02:13:19.101Z,4.87
2023-02-26T02:15:52.705Z,7.12
2023-02-26T02:18:40.211Z,6.58
2023-02-26T02:21:24.965Z,5.20
2023-02-26T02:24:17.251Z,7.05
2023-02-26T02:26:59.556Z,9.03
2023-02-26T02:29:34.617Z,7.75
2023-02-26T02:32:22.186Z,6.72
2023-02-26T02:34:54.469Z,9.63
2023-02-26T02:37:32.920Z,6.60
2023-02-26T02:40:05.395Z,11.60
2023-02-26T02:42:37.020Z,6.65
2023-02-26T02:45:10.887Z,5.62
2023-02-26T02:47:42.980Z,6.17
2023-02-26T02:50:24.292Z,5.58
2023-02-26T02:52:57.216Z,6.10
2023-02-26T02:55:29.906Z,6.20
2023-02-26T02:58:05.022Z,8.03
2023-02-26T03:00:36.349Z,7.28
2023-02-26T03:03:37.804Z,6.40
2023-02-26T03:06:07.873Z,9.70
2023-02-26T03:08:41.636Z,4.35
2023-02-26T03:11:11.336Z,4.87
2023-02-26T03:13:41.333Z,11.20
2023-02-26T03:16:21.660Z,8.53
2023-02-26T03:19:16.173Z,8.20
2023-02-26T03:22:05.479Z,6.70
2023-02-26T03:24:42.426Z,7.80
2023-02-26T03:27:15.048Z,5.33
2023-02-26T03:30:00.797Z,5.87
2023-02-26T03:32:50.558Z,8.50
2023-02-26T03:35:55.741Z,7.42
2023-02-26T03:38:28.350Z,7.33
2023-02-26T03:41:02.476Z,4.83
2023-02-26T03:43:36.226Z,6.40
2023-02-26T03:46:08.863Z,10.15
2023-02-26T03:48:38.559Z,7.70
2023-02-26T03:51:11.113Z,4.05
2023-02-26T03:54:00.308Z,4.05
2023-02-26T03:56:42.952Z,3.33
2023-02-26T03:59:14.937Z,8.90
2023-02-26T04:01:52.194Z,5.47
2023-02-26T04:04:34.390Z,7.17
2023-02-26T04:09:33.075Z,5.60
2023-02-26T04:12:02.994Z,6.90
2023-02-26T04:14:32.216Z,5.37
2023-02-26T04:17:01.589Z,3.98
2023-02-26T04:19:31.007Z,5.92
2023-02-26T04:22:00.486Z,7.65
2023-02-26T04:24:30.010Z,8.38
2023-02-26T04:27:01.184Z,5.60
2023-02-26T04:29:32.453Z,6.42
2023-02-26T04:32:02.902Z,10.50
2023-02-26T04:34:32.677Z,9.33
2023-02-26T04:37:02.118Z,6.15
2023-02-26T04:39:32.096Z,6.50
2023-02-26T04:42:01.516Z,2.33
2023-02-26T04:44:31.361Z,6.80
2023-02-26T04:47:01.639Z,6.47
2023-02-26T04:49:31.505Z,2.58
2023-02-26T04:52:00.901Z,9.08
2023-02-26T04:54:30.541Z,5.17
2023-02-26T04:56:59.862Z,11.38
2023-02-26T04:59:29.543Z,8.70
2023-02-26T05:02:00.190Z,5.33
2023-02-26T05:04:29.728Z,6.05
2023-02-26T05:07:01.201Z,8.03
2023-02-26T05:09:30.522Z,6.33
2023-02-26T05:11:59.858Z,3.62
2023-02-26T05:14:29.163Z,5.85
2023-02-26T05:16:59.531Z,7.12
2023-02-26T05:19:29.362Z,3.60
2023-02-26T05:21:58.735Z,8.80
2023-02-26T05:24:28.022Z,2.83
2023-02-26T05:26:57.513Z,6.33
2023-02-26T05:29:26.822Z,7.25
2023-02-26T05:31:57.437Z,4.53
2023-02-26T05:34:26.916Z,5.72
2023-02-26T05:36:56.150Z,2.65
2023-02-26T05:39:25.394Z,5.67
2023-02-26T05:41:55.511Z,7.62
2023-02-26T05:44:25.419Z,5.65
2023-02-26T05:46:54.906Z,3.45
2023-02-26T05:49:24.197Z,9.63
2023-02-26T05:51:53.449Z,9.20
2023-02-26T05:54:22.731Z,5.80
2023-02-26T05:56:52.317Z,9.83
2023-02-26T05:59:21.874Z,5.00
2023-02-26T06:01:51.288Z,7.78
2023-02-26T06:04:21.265Z,4.60
2023-02-26T06:06:50.470Z,6.90
2023-02-26T06:09:19.735Z,6.35
2023-02-26T06:11:48.937Z,4.37
2023-02-26T06:14:18.579Z,4.80
2023-02-26T06:16:47.910Z,1.80
2023-02-26T06:19:17.473Z,5.30
2023-02-26T06:21:47.083Z,11.18
2023-02-26T06:24:16.862Z,4.12
2023-02-26T06:26:46.139Z,3.22
2023-02-26T06:29:15.435Z,9.00
2023-02-26T06:31:45.388Z,5.70
2023-02-26T06:34:15.129Z,7.25
2023-02-26T06:36:44.878Z,5.40
2023-02-26T06:39:14.783Z,2.33
2023-02-26T06:41:44.069Z,5.75
2023-02-26T06:44:13.450Z,4.17
2023-02-26T06:46:42.779Z,7.00
2023-02-26T06:49:12.172Z,2.08
2023-02-26T06:51:41.460Z,5.15
2023-02-26T06:54:11.098Z,3.17
2023-02-26T06:56:40.566Z,5.47
2023-02-26T06:59:09.920Z,3.12
2023-02-26T07:01:40.060Z,2.95
2023-02-26T07:04:09.452Z,4.10
2023-02-26T07:06:38.887Z,4.30
2023-02-26T07:09:08.327Z,3.40
2023-02-26T07:11:37.670Z,5.33
2023-02-26T07:14:07.096Z,4.67
2023-02-26T07:16:36.583Z,6.03
2023-02-26T07:19:05.849Z,4.80
2023-02-26T07:21:35.716Z,6.08
2023-02-26T07:24:05.614Z,3.90
2023-02-26T07:26:34.967Z,5.62
2023-02-26T07:29:04.744Z,4.12
2023-02-26T07:31:34.679Z,5.83
2023-02-26T07:34:04.482Z,2.95
2023-02-26T07:36:33.734Z,5.78
2023-02-26T07:39:03.150Z,9.98
2023-02-26T07:41:32.344Z,4.50
2023-02-26T07:44:01.664Z,2.50
2023-02-26T07:46:30.894Z,5.22
2023-02-26T07:49:00.729Z,7.45
2023-02-26T07:51:32.398Z,5.40
2023-02-26T07:54:00.862Z,6.62
2023-02-26T07:56:30.729Z,3.85
2023-02-26T07:59:00.516Z,4.70
2023-02-26T08:01:29.830Z,3.85
2023-02-26T08:03:59.103Z,3.17
2023-02-26T08:06:29.317Z,5.53
2023-02-26T08:08:58.578Z,7.58
2023-02-26T08:11:28.307Z,3.12
2023-02-26T08:13:57.713Z,4.17
2023-02-26T08:16:27.585Z,5.78
2023-02-26T08:18:57.010Z,2.33
2023-02-26T08:21:26.684Z,3.40
2023-02-26T08:23:56.046Z,2.67
2023-02-26T08:26:25.981Z,3.80
2023-02-26T08:28:55.753Z,5.30
2023-02-26T08:31:25.813Z,3.58
2023-02-26T08:33:55.855Z,4.03
2023-02-26T08:36:26.495Z,4.40
2023-02-26T08:38:56.058Z,3.42
2023-02-26T08:41:27.701Z,5.42
2023-02-26T08:43:57.585Z,1.75
2023-02-26T08:46:28.030Z,6.55
2023-02-26T08:48:57.646Z,2.30
2023-02-26T08:51:27.441Z,7.42
2023-02-26T08:53:56.906Z,4.92
2023-02-26T08:56:26.862Z,3.72
2023-02-26T08:58:56.650Z,4.47
2023-02-26T09:01:26.197Z,2.77
2023-02-26T09:03:55.807Z,3.12
2023-02-26T09:06:25.418Z,3.83
2023-02-26T09:08:55.386Z,2.52
2023-02-26T09:11:25.424Z,6.30
2023-02-26T09:13:54.833Z,2.55
2023-02-26T09:16:24.559Z,3.62
2023-02-26T09:18:54.166Z,4.72
2023-02-26T09:21:24.106Z,5.25
2023-02-26T09:23:53.335Z,3.62
2023-02-26T09:26:23.183Z,6.05
2023-02-26T09:28:52.701Z,3.50
2023-02-26T09:31:22.312Z,3.90
2023-02-26T09:33:51.642Z,4.03
2023-02-26T09:36:21.427Z,3.37
2023-02-26T09:38:50.638Z,2.50
2023-02-26T09:41:32.367Z,3.98
2023-02-26T09:44:25.606Z,5.83
2023-02-26T09:47:19.280Z,4.65
2023-02-26T09:50:15.967Z,3.72
2023-02-26T09:52:51.627Z,4.65
2023-02-26T09:55:26.668Z,2.20
2023-02-26T09:57:59.216Z,2.85
2023-02-26T10:03:19.986Z,2.47
2023-02-26T10:05:58.127Z,4.65
2023-02-26T10:08:30.631Z,7.17
2023-02-26T10:11:15.285Z,3.42
2023-02-26T10:13:57.275Z,2.35
2023-02-26T10:16:23.710Z,3.25
2023-02-26T10:19:00.516Z,2.87
2023-02-26T10:21:41.741Z,3.37
2023-02-26T10:24:14.234Z,3.83
2023-02-26T10:26:46.594Z,2.05
2023-02-26T10:29:31.069Z,1.92
2023-02-26T10:32:16.147Z,1.70
2023-02-26T10:34:53.654Z,2.08
2023-02-26T10:37:44.415Z,4.08
2023-02-26T10:40:29.178Z,1.22
2023-02-26T10:43:07.471Z,1.90
2023-02-26T10:45:39.942Z,4.12
2023-02-26T10:48:15.425Z,5.60
2023-02-26T10:50:56.963Z,4.37
2023-02-26T10:53:28.461Z,2.22
2023-02-26T10:56:00.860Z,2.95
2023-02-26T10:58:30.075Z,2.47
2023-02-26T11:00:59.361Z,3.35
2023-02-26T11:03:34.821Z,3.35
2023-02-26T11:06:06.596Z,3.15
2023-02-26T11:08:39.044Z,4.20
2023-02-26T11:11:09.021Z,2.12
2023-02-26T11:13:40.700Z,1.80
2023-02-26T11:16:18.656Z,2.83
2023-02-26T11:18:54.021Z,1.55
2023-02-26T11:21:26.775Z,2.52
2023-02-26T11:23:59.771Z,3.52
2023-02-26T11:26:32.422Z,2.05
2023-02-26T11:29:01.777Z,3.05
2023-02-26T11:31:32.066Z,2.98
2023-02-26T11:34:04.774Z,2.65
2023-02-26T11:36:35.502Z,3.47
2023-02-26T11:39:08.010Z,2.33
2023-02-26T11:44:09.635Z,1.82
2023-02-26T11:46:42.047Z,3.90
2023-02-26T11:49:14.076Z,2.12
2023-02-26T11:51:46.443Z,2.58
2023-02-26T11:54:24.340Z,2.70
2023-02-26T11:56:53.779Z,4.65
2023-02-26T11:59:24.921Z,1.55
2023-02-26T12:01:55.193Z,1.75
2023-02-26T12:04:27.892Z,2.60
2023-02-26T12:06:58.088Z,2.45
2023-02-26T12:09:28.180Z,2.02
2023-02-26T12:12:15.847Z,2.98
2023-02-26T12:14:53.913Z,3.08
2023-02-26T12:17:35.221Z,2.17
2023-02-26T12:20:15.299Z,1.85
2023-02-26T12:23:04.427Z,2.35
2023-02-26T12:26:10.195Z,2.35
2023-02-26T12:28:59.202Z,1.15
2023-02-26T12:31:47.268Z,2.75
2023-02-26T12:34:34.926Z,1.80
2023-02-26T12:37:29.284Z,2.85
2023-02-26T12:40:07.650Z,1.47
2023-02-26T12:43:10.480Z,2.33
2023-02-26T12:46:02.226Z,2.75
2023-02-26T12:48:46.508Z,1.50
2023-02-26T12:51:28.181Z,3.17
2023-02-26T12:54:28.029Z,1.80
2023-02-26T12:57:23.322Z,1.90
2023-02-26T13:00:15.113Z,2.47
2023-02-26T13:03:12.137Z,3.05
2023-02-26T13:06:02.669Z,2.90
2023-02-26T13:08:35.752Z,5.85
2023-02-26T13:11:08.184Z,2.22
2023-02-26T13:13:46.759Z,2.47
2023-02-26T13:16:34.601Z,3.52
2023-02-26T13:19:19.264Z,3.42
2023-02-26T13:21:54.313Z,1.95
2023-02-26T13:24:30.098Z,1.35
2023-02-26T13:27:00.371Z,1.70
2023-02-26T13:29:36.376Z,1.77
2023-02-26T13:32:13.245Z,2.05
2023-02-26T13:34:46.519Z,1.75
2023-02-26T13:37:30.466Z,1.60
2023-02-26T13:40:22.558Z,4.92
2023-02-26T13:43:14.505Z,2.70
2023-02-26T13:45:53.023Z,1.50
2023-02-26T13:48:25.473Z,1.47
2023-02-26T13:51:13.984Z,2.10
2023-02-26T13:53:49.848Z,5.00
2023-02-26T13:56:34.511Z,1.42
2023-02-26T13:59:20.550Z,2.08
2023-02-26T14:01:53.769Z,4.20
2023-02-26T14:04:26.483Z,1.82
2023-02-26T14:07:13.848Z,2.55
2023-02-26T14:10:02.015Z,2.25
2023-02-26T14:12:36.386Z,1.92
2023-02-26T14:15:20.564Z,1.57
2023-02-26T14:17:52.281Z,1.77
2023-02-26T14:20:27.650Z,4.13
2023-02-26T14:23:12.603Z,2.92
2023-02-26T14:25:45.038Z,2.65
2023-02-26T14:28:30.205Z,2.80
2023-02-26T14:31:22.377Z,3.30
2023-02-26T14:34:00.755Z,1.85
2023-02-26T14:36:49.727Z,2.60
2023-02-26T14:39:33.378Z,3.95
2023-02-26T14:42:05.999Z,2.92
2023-02-26T14:47:07.994Z,4.47
2023-02-26T14:49:40.432Z,2.75
2023-02-26T14:52:30.817Z,4.58
2023-02-26T14:55:07.596Z,2.87
2023-02-26T14:58:05.693Z,2.52
2023-02-26T15:00:49.791Z,1.50
2023-02-26T15:03:25.158Z,1.90
2023-02-26T15:06:03.446Z,3.80
2023-02-26T15:08:35.904Z,1.92
2023-02-26T15:11:24.977Z,1.30
2023-02-26T15:14:00.528Z,2.85
2023-02-26T15:16:44.831Z,4.15
2023-02-26T15:19:36.888Z,3.42
2023-02-26T15:22:23.785Z,1.17
2023-02-26T15:24:53.624Z,1.80
2023-02-26T15:27:23.056Z,4.37
2023-02-26T15:29:53.161Z,2.80
2023-02-26T15:32:28.901Z,1.77
2023-02-26T15:35:01.490Z,2.58
2023-02-26T15:40:04.991Z,1.77
2023-02-26T15:42:38.334Z,2.02
2023-02-26T15:45:16.951Z,0.90
2023-02-26T15:47:47.965Z,3.65
2023-02-26T15:50:18.459Z,1.12
2023-02-26T15:52:50.055Z,2.27
2023-02-26T15:55:19.498Z,1.60
2023-02-26T15:57:49.336Z,1.32
2023-02-26T16:00:27.657Z,1.52
2023-02-26T16:02:58.944Z,2.27
2023-02-26T16:05:29.351Z,2.20
2023-02-26T16:07:58.920Z,1.30
2023-02-26T16:10:31.311Z,1.17
2023-02-26T16:13:01.869Z,0.75
2023-02-26T16:15:39.109Z,2.67
2023-02-26T16:18:12.046Z,1.85
2023-02-26T16:20:44.305Z,1.95
2023-02-26T16:23:16.890Z,0.80
2023-02-26T16:25:57.952Z,1.12
2023-02-26T16:28:37.828Z,2.02
2023-02-26T16:31:12.647Z,2.62
2023-02-26T16:33:43.193Z,3.33
2023-02-26T16:36:16.381Z,2.27
2023-02-26T16:38:49.681Z,3.20
2023-02-26T16:41:22.231Z,1.67
2023-02-26T16:46:33.732Z,2.62
2023-02-26T16:49:08.005Z,1.00
2023-02-26T16:51:39.876Z,2.30
2023-02-26T16:54:27.267Z,2.35
2023-02-26T16:57:09.085Z,3.90
2023-02-26T16:59:39.630Z,1.30
2023-02-26T17:02:22.434Z,3.75
2023-02-26T17:05:03.880Z,2.65
2023-02-26T17:07:36.203Z,2.58
2023-02-26T17:10:11.541Z,3.12
2023-02-26T17:12:50.226Z,5.37
2023-02-26T17:15:35.829Z,2.85
2023-02-26T17:18:05.543Z,2.40
2023-02-26T17:20:34.957Z,1.98
2023-02-26T17:23:06.156Z,1.07
2023-02-26T17:25:38.590Z,3.10
2023-02-26T17:30:38.339Z,2.65
2023-02-26T17:33:10.907Z,3.42
2023-02-26T17:38:13.344Z,2.92
2023-02-26T17:40:45.334Z,2.40
2023-02-26T17:43:15.007Z,2.80
2023-02-26T17:45:44.330Z,3.62
2023-02-26T17:48:16.304Z,3.47
2023-02-26T17:50:51.398Z,2.90
2023-02-26T17:53:22.437Z,1.77
2023-02-26T17:55:53.523Z,3.17
2023-02-26T17:58:32.145Z,3.02
2023-02-26T18:01:03.994Z,2.47
2023-02-26T18:03:33.643Z,3.75
2023-02-26T18:06:03.372Z,2.58
2023-02-26T18:08:34.734Z,4.83
2023-02-26T18:11:05.016Z,4.70
2023-02-26T18:13:34.478Z,3.30
2023-02-26T18:16:04.477Z,5.28
2023-02-26T18:18:34.007Z,2.67
2023-02-26T18:21:04.871Z,2.22
2023-02-26T18:23:34.199Z,5.35
2023-02-26T18:26:03.678Z,6.30
2023-02-26T18:28:33.436Z,5.25
2023-02-26T18:31:04.467Z,3.12
2023-02-26T18:33:33.798Z,6.53
2023-02-26T18:36:03.413Z,4.17
2023-02-26T18:38:32.716Z,4.75
2023-02-26T18:41:02.269Z,3.85
2023-02-26T18:43:31.607Z,4.60
2023-02-26T18:46:02.213Z,5.75
2023-02-26T18:48:32.113Z,5.37
2023-02-26T18:51:01.675Z,6.55
2023-02-26T18:53:30.910Z,4.42
2023-02-26T18:56:00.173Z,3.92
2023-02-26T18:58:29.531Z,5.30
2023-02-26T19:00:59.309Z,5.53
2023-02-26T19:03:29.011Z,5.42
2023-02-26T19:06:04.364Z,5.03
2023-02-26T19:08:34.025Z,5.15
2023-02-26T19:11:03.434Z,4.25
2023-02-26T19:13:34.615Z,6.03
2023-02-26T19:16:04.189Z,5.78
2023-02-26T19:18:33.840Z,5.30
2023-02-26T19:21:04.770Z,7.00
2023-02-26T19:23:34.093Z,5.40
2023-02-26T19:26:04.105Z,6.35
2023-02-26T19:28:33.893Z,4.15
2023-02-26T19:31:03.617Z,7.10
2023-02-26T19:33:33.119Z,7.17
2023-02-26T19:36:04.033Z,5.58
2023-02-26T19:38:33.586Z,7.42
2023-02-26T19:41:02.938Z,5.03
2023-02-26T19:43:32.461Z,6.40
2023-02-26T19:46:01.862Z,5.75
2023-02-26T19:48:31.977Z,4.08
2023-02-26T19:51:03.066Z,8.80
2023-02-26T19:53:32.358Z,6.15
2023-02-26T19:56:02.431Z,8.18
2023-02-26T19:58:32.350Z,6.55
2023-02-26T20:01:03.628Z,6.60
2023-02-26T20:03:33.249Z,5.55
2023-02-26T20:06:03.432Z,10.75
2023-02-26T20:08:32.828Z,8.30
2023-02-26T20:11:02.818Z,6.53
2023-02-26T20:13:34.077Z,8.90
2023-02-26T20:16:05.938Z,7.55
2023-02-26T20:18:36.013Z,11.10
2023-02-26T20:21:08.384Z,6.47
2023-02-26T20:26:14.839Z,7.95
2023-02-26T20:28:44.294Z,9.45
2023-02-26T20:31:14.014Z,6.85
2023-02-26T20:33:43.530Z,12.03
2023-02-26T20:36:12.955Z,11.40
2023-02-26T20:38:43.031Z,8.55
2023-02-26T20:41:12.340Z,7.78
2023-02-26T20:43:41.809Z,5.83
2023-02-26T20:46:11.384Z,6.67
2023-02-26T20:48:42.641Z,4.95
2023-02-26T20:51:12.282Z,8.28
2023-02-26T20:53:42.637Z,8.95
2023-02-26T20:56:11.933Z,8.13
2023-02-26T20:58:41.318Z,10.15
2023-02-26T21:01:10.969Z,8.58
2023-02-26T21:03:40.673Z,6.28
2023-02-26T21:06:11.005Z,6.83
2023-02-26T21:08:40.692Z,9.58
2023-02-26T21:11:10.377Z,8.53
2023-02-26T21:13:39.913Z,9.38
2023-02-26T21:16:09.326Z,10.95
2023-02-26T21:18:38.870Z,6.90
2023-02-26T21:21:08.448Z,5.08
2023-02-26T21:23:38.037Z,5.87
2023-02-26T21:26:07.557Z,8.15
2023-02-26T21:28:36.833Z,11.70
2023-02-26T21:31:06.286Z,9.93
2023-02-26T21:33:35.498Z,11.20
2023-02-26T21:36:06.386Z,8.93
2023-02-26T21:38:36.097Z,11.18
2023-02-26T21:41:06.861Z,10.70
2023-02-26T21:43:36.178Z,6.92
2023-02-26T21:46:05.877Z,5.67
2023-02-26T21:48:35.715Z,8.15
2023-02-26T21:51:05.483Z,8.00
2023-02-26T21:53:34.764Z,11.10
2023-02-26T21:56:04.141Z,6.08
2023-02-26T21:58:37.975Z,9.95
2023-02-26T22:01:10.682Z,10.08
2023-02-26T22:03:40.449Z,8.20
2023-02-26T22:06:15.571Z,6.92
2023-02-26T22:08:47.116Z,9.00
2023-02-26T22:11:18.671Z,11.57
2023-02-26T22:13:52.604Z,10.40
2023-02-26T22:16:41.260Z,7.28
2023-02-26T22:19:11.996Z,9.38
2023-02-26T22:21:41.600Z,9.28
2023-02-26T22:24:11.315Z,11.20
2023-02-26T22:26:40.713Z,7.80
2023-02-26T22:29:15.082Z,13.35
2023-02-26T22:31:44.672Z,9.08
2023-02-26T22:34:16.154Z,5.00
2023-02-26T22:36:47.659Z,9.30
2023-02-26T22:39:17.246Z,9.78
2023-02-26T22:41:48.673Z,7.30
2023-02-26T22:44:18.412Z,9.85
2023-02-26T22:46:49.516Z,9.85
2023-02-26T22:49:19.759Z,5.33
2023-02-26T22:51:49.947Z,10.18
2023-02-26T22:54:19.174Z,8.95
2023-02-26T22:56:48.630Z,8.73
2023-02-26T22:59:18.257Z,6.42
2023-02-26T23:01:47.824Z,12.37
2023-02-26T23:04:17.315Z,6.03
2023-02-26T23:06:46.703Z,11.50
2023-02-26T23:09:16.003Z,10.70
2023-02-26T23:11:45.323Z,9.05
2023-02-26T23:14:14.618Z,6.78
2023-02-26T23:16:44.865Z,11.33
2023-02-26T23:19:14.163Z,8.23
2023-02-26T23:21:43.408Z,5.62
2023-02-26T23:24:12.754Z,7.95
2023-02-26T23:26:42.004Z,6.25
2023-02-26T23:29:11.566Z,7.40
2023-02-26T23:31:41.837Z,8.18
2023-02-26T23:34:11.190Z,8.30
2023-02-26T23:36:40.800Z,9.28
2023-02-26T23:39:10.180Z,6.58
2023-02-26T23:41:39.632Z,9.55
2023-02-26T23:44:09.005Z,6.55
2023-02-26T23:46:38.735Z,10.10
2023-02-26T23:49:09.517Z,8.93
2023-02-26T23:51:39.297Z,6.17
2023-02-26T23:54:08.507Z,7.58
2023-02-26T23:56:38.065Z,6.08
2023-02-26T23:59:07.681Z,11.95
